createdAt,value
2023-03-28T00:02:27.988Z,11.00
2023-03-28T00:05:00.385Z,11.70
2023-03-28T00:07:29.641Z,13.30
2023-03-28T00:09:58.345Z,11.10
2023-03-28T00:12:27.434Z,18.00
2023-03-28T00:14:57.870Z,8.70
2023-03-28T00:17:26.521Z,11.10
2023-03-28T00:19:55.442Z,13.40
2023-03-28T00:22:30.860Z,13.60
2023-03-28T00:24:59.905Z,12.50
2023-03-28T00:27:28.826Z,9.60
2023-03-28T00:29:58.152Z,12.60
2023-03-28T00:32:57.786Z,10.10
2023-03-28T00:35:27.378Z,12.10
2023-03-28T00:37:58.138Z,10.70
2023-03-28T00:40:27.714Z,13.70
2023-03-28T00:42:56.570Z,8.30
2023-03-28T00:45:27.278Z,10.20
2023-03-28T00:48:02.371Z,8.40
2023-03-28T00:50:41.190Z,8.60
2023-03-28T00:53:20.662Z,9.60
2023-03-28T00:55:57.753Z,10.10
2023-03-28T00:58:28.284Z,7.50
2023-03-28T01:00:57.584Z,10.80
2023-03-28T01:03:34.101Z,10.20
2023-03-28T01:06:04.938Z,9.50
2023-03-28T01:08:44.337Z,8.90
2023-03-28T01:11:13.211Z,9.00
2023-03-28T01:13:46.361Z,11.00
2023-03-28T01:16:16.179Z,9.70
2023-03-28T01:18:47.232Z,8.00
2023-03-28T01:21:38.631Z,7.70
2023-03-28T01:24:49.566Z,8.30
2023-03-28T01:27:20.260Z,7.60
2023-03-28T01:30:02.842Z,8.60
2023-03-28T01:33:05.584Z,8.70
2023-03-28T01:36:09.295Z,9.80
2023-03-28T01:38:48.466Z,9.70
2023-03-28T01:41:35.705Z,8.50
2023-03-28T01:44:06.727Z,8.00
2023-03-28T01:46:51.234Z,11.50
2023-03-28T01:52:01.514Z,8.50
2023-03-28T01:55:05.928Z,9.30
2023-03-28T01:57:39.359Z,7.70
2023-03-28T02:00:15.957Z,10.10
2023-03-28T02:03:19.183Z,7.90
2023-03-28T02:05:54.596Z,9.60
2023-03-28T02:08:26.801Z,7.70
2023-03-28T02:11:14.031Z,8.20
2023-03-28T02:14:11.582Z,8.90
2023-03-28T02:16:57.657Z,6.40
2023-03-28T02:19:38.064Z,10.50
2023-03-28T02:22:32.504Z,8.90
2023-03-28T02:25:01.333Z,8.70
2023-03-28T02:27:43.907Z,8.20
2023-03-28T02:30:40.190Z,7.60
2023-03-28T02:33:39.354Z,7.20
2023-03-28T02:36:33.765Z,8.10
2023-03-28T02:39:16.907Z,5.80
2023-03-28T02:41:55.028Z,6.30
2023-03-28T02:44:28.245Z,9.10
2023-03-28T02:47:02.754Z,7.30
2023-03-28T02:49:49.521Z,11.10
2023-03-28T02:52:52.546Z,7.60
2023-03-28T02:55:34.650Z,6.30
2023-03-28T02:58:37.890Z,8.30
2023-03-28T03:01:07.652Z,7.30
2023-03-28T03:03:37.810Z,6.90
2023-03-28T03:06:15.157Z,6.30
2023-03-28T03:46:03.454Z,9.00
2023-03-28T03:48:39.326Z,8.10
2023-03-28T03:51:19.633Z,9.50
2023-03-28T03:53:50.987Z,9.60
2023-03-28T03:56:22.984Z,9.90
2023-03-28T03:58:54.166Z,9.80
2023-03-28T04:01:30.780Z,7.70
2023-03-28T04:04:29.646Z,11.30
2023-03-28T04:07:13.621Z,11.30
2023-03-28T04:09:43.208Z,10.30
2023-03-28T04:12:12.015Z,11.30
2023-03-28T04:14:48.337Z,8.30
2023-03-28T04:17:38.060Z,12.70
2023-03-28T04:22:16.796Z,9.90
2023-03-28T04:26:52.981Z,9.50
2023-03-28T04:29:31.011Z,13.70
2023-03-28T04:32:14.167Z,9.80
2023-03-28T04:35:04.976Z,11.30
2023-03-28T04:37:37.936Z,8.30
2023-03-28T04:40:16.347Z,9.70
2023-03-28T04:43:10.835Z,13.30
2023-03-28T04:45:50.575Z,8.30
2023-03-28T04:48:20.244Z,7.40
2023-03-28T04:50:49.076Z,10.90
2023-03-28T04:53:20.760Z,9.60
2023-03-28T04:56:09.061Z,9.90
2023-03-28T04:58:39.113Z,11.40
2023-03-28T05:01:11.894Z,14.10
2023-03-28T05:04:01.913Z,9.50
2023-03-28T05:06:31.096Z,16.50
2023-03-28T05:08:59.843Z,11.60
2023-03-28T05:11:31.347Z,12.70
2023-03-28T05:14:00.231Z,13.00
2023-03-28T05:16:36.752Z,15.30
2023-03-28T05:19:25.213Z,19.20
2023-03-28T05:22:02.024Z,25.60
2023-03-28T05:24:31.955Z,16.80
2023-03-28T05:27:01.075Z,16.60
2023-03-28T05:29:30.130Z,19.30
2023-03-28T05:32:19.545Z,18.60
2023-03-28T05:34:48.476Z,12.50
2023-03-28T05:37:17.210Z,13.70
2023-03-28T05:39:56.008Z,14.40
2023-03-28T05:42:26.115Z,10.90
2023-03-28T05:44:55.846Z,9.30
2023-03-28T05:47:43.747Z,12.40
2023-03-28T05:50:17.842Z,9.90
2023-03-28T05:52:57.743Z,11.20
2023-03-28T05:55:26.358Z,16.50
2023-03-28T05:57:56.270Z,11.50
2023-03-28T06:00:26.158Z,19.20
2023-03-28T06:02:56.931Z,13.10
2023-03-28T06:05:34.706Z,16.70
2023-03-28T06:08:06.356Z,19.30
2023-03-28T06:10:35.663Z,12.00
2023-03-28T06:13:21.169Z,13.30
2023-03-28T06:15:49.887Z,13.00
2023-03-28T06:24:45.870Z,11.60
2023-03-28T06:31:12.393Z,13.90
2023-03-28T06:33:54.698Z,11.80
2023-03-28T06:36:23.806Z,12.10
2023-03-28T06:38:53.735Z,10.90
2023-03-28T06:41:23.923Z,8.60
2023-03-28T06:43:52.605Z,14.60
2023-03-28T06:47:02.997Z,12.10
2023-03-28T06:49:32.128Z,12.10
2023-03-28T06:52:20.239Z,7.40
2023-03-28T06:54:49.670Z,8.90
2023-03-28T06:57:19.589Z,13.80
2023-03-28T06:59:49.537Z,16.40
2023-03-28T07:02:22.065Z,12.10
2023-03-28T07:04:56.380Z,13.60
2023-03-28T07:07:25.514Z,7.90
2023-03-28T07:09:55.003Z,8.40
2023-03-28T07:12:26.807Z,13.50
2023-03-28T07:14:56.394Z,14.60
2023-03-28T07:18:06.114Z,8.00
2023-03-28T07:20:34.937Z,10.50
2023-03-28T07:23:03.762Z,12.90
2023-03-28T07:25:34.599Z,15.00
2023-03-28T07:28:04.714Z,12.00
2023-03-28T07:30:35.973Z,8.20
2023-03-28T07:33:16.627Z,14.20
2023-03-28T07:35:47.602Z,8.20
2023-03-28T07:38:17.131Z,14.00
2023-03-28T07:40:53.961Z,12.80
2023-03-28T07:43:23.299Z,8.90
2023-03-28T07:46:03.635Z,9.90
2023-03-28T07:48:32.677Z,13.40
2023-03-28T07:51:01.739Z,7.10
2023-03-28T07:53:30.845Z,8.20
2023-03-28T07:55:59.904Z,11.30
2023-03-28T07:58:35.853Z,7.50
2023-03-28T08:01:57.770Z,12.00
2023-03-28T08:04:31.245Z,5.60
2023-03-28T08:07:07.946Z,17.30
2023-03-28T08:09:37.247Z,7.80
2023-03-28T08:12:19.801Z,13.40
2023-03-28T08:15:10.452Z,9.00
2023-03-28T08:17:39.650Z,10.70
2023-03-28T08:20:12.865Z,8.40
2023-03-28T08:23:03.304Z,8.20
2023-03-28T08:26:05.244Z,9.40
2023-03-28T08:28:37.334Z,10.20
2023-03-28T08:31:16.507Z,7.60
2023-03-28T08:33:48.918Z,9.20
2023-03-28T08:36:18.055Z,5.00
2023-03-28T08:38:47.388Z,10.20
2023-03-28T08:41:30.017Z,6.10
2023-03-28T08:47:03.403Z,8.80
2023-03-28T08:49:34.126Z,6.40
2023-03-28T08:52:05.772Z,6.50
2023-03-28T08:55:08.897Z,6.50
2023-03-28T08:57:43.628Z,23.60
2023-03-28T09:00:15.380Z,11.70
2023-03-28T09:02:44.995Z,12.50
2023-03-28T09:05:23.482Z,7.80
2023-03-28T09:08:20.721Z,7.90
2023-03-28T09:11:03.687Z,9.50
2023-03-28T09:13:51.934Z,9.40
2023-03-28T09:16:23.956Z,9.20
2023-03-28T09:19:16.935Z,9.10
2023-03-28T09:22:15.926Z,10.00
2023-03-28T09:24:56.721Z,7.60
2023-03-28T09:38:43.358Z,8.80
2023-03-28T09:42:38.616Z,11.90
2023-03-28T09:46:41.979Z,9.70
2023-03-28T09:49:46.180Z,10.80
2023-03-28T09:55:21.751Z,12.30
2023-03-28T09:58:10.615Z,20.30
2023-03-28T10:00:58.794Z,13.70
2023-03-28T10:04:00.525Z,15.30
2023-03-28T10:07:09.747Z,14.90
2023-03-28T10:09:57.169Z,9.20
2023-03-28T10:12:36.831Z,10.60
2023-03-28T10:15:14.411Z,13.30
2023-03-28T10:18:20.067Z,13.40
2023-03-28T10:20:56.656Z,10.30
2023-03-28T10:23:26.584Z,13.00
2023-03-28T10:25:56.422Z,13.00
2023-03-28T10:28:33.413Z,11.50
2023-03-28T10:31:02.508Z,6.90
2023-03-28T10:34:03.009Z,7.50
2023-03-28T10:36:54.847Z,8.70
2023-03-28T10:39:30.861Z,7.70
2023-03-28T10:42:20.339Z,7.20
2023-03-28T10:45:03.012Z,10.90
2023-03-28T10:47:35.790Z,8.00
2023-03-28T10:50:07.274Z,7.30
2023-03-28T10:52:47.835Z,12.80
2023-03-28T10:55:25.432Z,9.90
2023-03-28T10:58:13.719Z,8.90
2023-03-28T11:00:59.473Z,8.40
2023-03-28T11:04:00.640Z,10.70
2023-03-28T11:07:15.879Z,10.40
2023-03-28T11:10:40.595Z,8.60
2023-03-28T11:13:37.705Z,8.70
2023-03-28T11:16:25.578Z,10.50
2023-03-28T11:19:39.972Z,9.80
2023-03-28T11:22:20.020Z,6.90
2023-03-28T11:24:52.219Z,8.10
2023-03-28T11:27:44.841Z,5.60
2023-03-28T11:30:29.746Z,5.70
2023-03-28T11:33:36.957Z,6.30
2023-03-28T11:36:16.718Z,7.00
2023-03-28T11:38:54.610Z,5.20
2023-03-28T11:41:26.292Z,6.30
2023-03-28T11:44:41.786Z,8.80
2023-03-28T11:47:18.825Z,5.50
2023-03-28T11:50:07.317Z,4.90
2023-03-28T11:53:14.053Z,6.50
2023-03-28T11:56:18.191Z,9.70
2023-03-28T11:59:09.872Z,9.20
2023-03-28T12:01:42.037Z,9.60
2023-03-28T12:04:13.919Z,8.90
2023-03-28T12:07:02.207Z,10.90
2023-03-28T12:09:38.155Z,7.60
2023-03-28T12:12:15.115Z,10.20
2023-03-28T12:14:57.865Z,6.80
2023-03-28T12:17:47.455Z,8.10
2023-03-28T12:20:31.292Z,6.80
2023-03-28T12:26:04.276Z,8.20
2023-03-28T12:28:39.117Z,7.50
2023-03-28T12:31:14.837Z,10.00
2023-03-28T12:42:15.746Z,11.50
2023-03-28T12:45:07.402Z,12.60
2023-03-28T12:47:42.717Z,10.20
2023-03-28T12:50:45.023Z,9.60
2023-03-28T12:53:22.295Z,9.10
2023-03-28T12:55:54.985Z,9.40
2023-03-28T12:58:26.941Z,10.50
2023-03-28T13:01:30.092Z,14.80
2023-03-28T13:04:18.617Z,12.70
2023-03-28T13:07:10.891Z,14.40
2023-03-28T13:09:42.595Z,17.50
2023-03-28T13:12:31.119Z,35.30
2023-03-28T13:15:16.502Z,33.40
2023-03-28T13:17:49.722Z,26.00
2023-03-28T13:22:58.670Z,17.90
2023-03-28T13:25:28.805Z,11.80
2023-03-28T13:29:03.572Z,14.90
2023-03-28T13:32:23.706Z,15.00
2023-03-28T13:34:57.911Z,12.90
2023-03-28T13:37:47.932Z,11.30
2023-03-28T13:40:56.419Z,16.50
2023-03-28T13:47:27.712Z,12.10
2023-03-28T13:53:55.607Z,32.80
2023-03-28T14:04:41.002Z,27.90
2023-03-28T14:14:41.373Z,43.80
2023-03-28T14:17:18.422Z,38.70
2023-03-28T14:20:24.613Z,37.00
2023-03-28T14:24:01.366Z,40.60
2023-03-28T14:26:51.992Z,36.20
2023-03-28T14:36:27.721Z,46.60
2023-03-28T14:39:19.935Z,49.30
2023-03-28T14:42:47.350Z,36.30
2023-03-28T14:46:25.371Z,30.70
2023-03-28T14:50:06.611Z,21.80
2023-03-28T14:53:13.605Z,20.90
2023-03-28T14:59:21.798Z,16.00
2023-03-28T15:02:27.586Z,17.10
2023-03-28T15:05:42.603Z,12.30
2023-03-28T15:09:58.012Z,17.00
2023-03-28T15:13:09.310Z,17.10
2023-03-28T15:16:09.201Z,15.50
2023-03-28T15:19:09.692Z,26.90
2023-03-28T15:21:40.482Z,25.40
2023-03-28T15:24:13.850Z,32.90
2023-03-28T15:26:44.741Z,40.10
2023-03-28T15:29:18.346Z,40.80
2023-03-28T15:31:49.620Z,33.90
2023-03-28T15:34:27.704Z,21.40
2023-03-28T15:37:02.755Z,24.80
2023-03-28T15:39:38.294Z,25.60
2023-03-28T15:42:21.313Z,19.70
2023-03-28T15:45:10.230Z,14.10
2023-03-28T15:48:20.170Z,16.20
2023-03-28T15:50:52.751Z,19.60
2023-03-28T15:56:23.542Z,15.30
2023-03-28T15:58:53.708Z,21.80
2023-03-28T16:01:49.331Z,17.40
2023-03-28T16:05:14.622Z,14.70
2023-03-28T16:18:04.249Z,16.20
2023-03-28T16:33:02.855Z,23.00
2023-03-28T16:35:53.842Z,18.20
2023-03-28T16:44:32.557Z,15.70
2023-03-28T16:50:27.595Z,15.60
2023-03-28T16:53:22.408Z,18.70
2023-03-28T16:55:55.287Z,18.10
2023-03-28T16:58:29.078Z,15.00
2023-03-28T17:01:22.118Z,15.80
2023-03-28T17:03:56.878Z,12.60
2023-03-28T17:06:35.917Z,13.00
2023-03-28T17:09:05.730Z,13.20
2023-03-28T17:11:55.258Z,8.90
2023-03-28T17:14:53.527Z,6.80
2023-03-28T17:17:23.697Z,8.00
2023-03-28T17:19:52.481Z,5.60
2023-03-28T17:22:22.295Z,4.60
2023-03-28T17:31:07.717Z,7.10
2023-03-28T17:33:37.119Z,3.20
2023-03-28T17:36:58.091Z,9.50
2023-03-28T17:46:45.416Z,3.90
2023-03-28T17:53:27.931Z,3.20
2023-03-28T18:00:31.561Z,2.90
2023-03-28T18:07:15.697Z,4.60
2023-03-28T18:10:05.997Z,2.30
2023-03-28T18:12:37.191Z,1.70
2023-03-28T18:15:24.981Z,3.10
2023-03-28T18:18:14.797Z,2.50
2023-03-28T18:21:45.425Z,3.40
2023-03-28T18:24:25.005Z,1.60
2023-03-28T18:27:43.512Z,2.80
2023-03-28T18:40:38.814Z,3.30
2023-03-28T19:06:51.642Z,9.20
2023-03-28T19:12:56.440Z,10.70
2023-03-28T19:22:46.422Z,8.30
2023-03-28T19:25:40.767Z,7.50
2023-03-28T19:29:00.206Z,7.10
2023-03-28T19:31:57.343Z,6.00
2023-03-28T19:34:48.908Z,6.30
2023-03-28T19:37:44.820Z,6.00
2023-03-28T19:40:35.203Z,7.10
2023-03-28T19:43:16.882Z,8.40
2023-03-28T19:46:36.419Z,9.70
2023-03-28T19:49:30.396Z,10.80
2023-03-28T19:52:01.388Z,9.60
2023-03-28T19:54:36.677Z,10.60
2023-03-28T19:57:10.576Z,6.40
2023-03-28T20:00:01.953Z,7.40
2023-03-28T20:02:47.887Z,5.70
2023-03-28T20:05:18.110Z,4.60
2023-03-28T20:07:50.483Z,6.40
2023-03-28T20:10:20.590Z,6.30
2023-03-28T20:12:50.130Z,5.90
2023-03-28T20:15:19.557Z,6.40
2023-03-28T20:17:57.460Z,5.60
2023-03-28T20:20:30.277Z,6.50
2023-03-28T20:23:04.691Z,5.40
2023-03-28T20:26:01.752Z,5.70
2023-03-28T20:28:36.626Z,6.20
2023-03-28T20:31:13.472Z,5.00
2023-03-28T20:37:08.057Z,6.70
2023-03-28T20:39:42.472Z,7.10
2023-03-28T20:42:28.229Z,7.30
2023-03-28T20:45:22.319Z,10.20
2023-03-28T20:48:06.653Z,9.40
